createdAt,value
2023-05-17T01:12:50.815Z,44.46
2023-05-17T01:47:34.565Z,44.64
2023-05-17T01:50:03.522Z,44.62
2023-05-17T01:52:33.622Z,44.58
2023-05-17T01:55:04.857Z,44.62
2023-05-17T01:57:36.145Z,44.68
2023-05-17T02:48:49.957Z,44.94
2023-05-17T02:51:18.134Z,45.01
2023-05-17T02:53:46.196Z,44.98
2023-05-17T02:56:16.748Z,44.91
2023-05-17T02:58:45.659Z,44.97
2023-05-17T03:48:02.854Z,44.79
2023-05-17T03:50:32.723Z,44.68
2023-05-17T03:53:01.313Z,44.67
2023-05-17T03:55:29.543Z,44.66
2023-05-17T03:57:57.719Z,44.65
2023-05-17T04:47:16.710Z,44.32
2023-05-17T04:49:44.899Z,44.34
2023-05-17T04:52:12.892Z,44.31
2023-05-17T04:54:40.910Z,44.35
2023-05-17T04:57:09.063Z,44.33
2023-05-17T04:59:54.732Z,44.31
2023-05-17T05:02:24.437Z,44.07
2023-05-17T05:04:52.863Z,44.23
2023-05-17T05:07:21.120Z,44.28
2023-05-17T05:09:49.318Z,44.34
2023-05-17T05:12:18.321Z,44.32
2023-05-17T05:14:46.302Z,44.31
2023-05-17T05:17:14.206Z,44.24
2023-05-17T05:19:44.551Z,44.31
2023-05-17T05:22:13.247Z,44.13
2023-05-17T05:24:41.950Z,44.17
2023-05-17T05:27:09.919Z,44.27
2023-05-17T05:29:39.115Z,44.22
2023-05-17T05:32:08.144Z,44.26
2023-05-17T05:34:43.811Z,44.17
2023-05-17T05:37:13.174Z,44.21
2023-05-17T05:39:41.213Z,44.15
2023-05-17T05:42:10.074Z,44.18
2023-05-17T05:44:40.073Z,44.22
2023-05-17T05:47:14.677Z,44.24
2023-05-17T05:49:43.232Z,44.06
2023-05-17T05:52:16.201Z,43.98
2023-05-17T05:54:45.096Z,43.94
2023-05-17T05:57:13.300Z,43.97
2023-05-17T05:59:41.810Z,44.01
2023-05-17T06:02:09.865Z,44.01
2023-05-17T06:04:45.339Z,43.99
2023-05-17T06:07:19.691Z,43.89
2023-05-17T06:09:53.410Z,43.93
2023-05-17T06:12:21.414Z,43.90
2023-05-17T06:14:49.435Z,43.83
2023-05-17T06:17:17.637Z,43.92
2023-05-17T06:19:46.166Z,43.80
2023-05-17T06:22:15.803Z,43.82
2023-05-17T06:24:43.903Z,43.71
2023-05-17T06:27:12.095Z,43.57
2023-05-17T06:29:40.055Z,43.70
2023-05-17T06:32:08.294Z,43.66
2023-05-17T06:34:36.619Z,43.47
2023-05-17T06:37:06.748Z,43.48
2023-05-17T06:39:36.523Z,43.41
2023-05-17T06:42:04.700Z,43.32
2023-05-17T06:44:37.122Z,43.47
2023-05-17T06:47:05.438Z,43.34
2023-05-17T06:49:33.546Z,43.42
2023-05-17T06:52:03.737Z,43.30
2023-05-17T06:54:31.826Z,43.34
2023-05-17T06:57:02.381Z,43.36
2023-05-17T06:59:30.476Z,43.33
2023-05-17T07:02:00.209Z,43.01
2023-05-17T07:04:28.447Z,43.13
2023-05-17T07:06:56.584Z,43.27
2023-05-17T07:09:26.277Z,43.26
2023-05-17T07:11:54.460Z,43.22
2023-05-17T07:14:23.916Z,43.22
2023-05-17T07:16:52.287Z,43.10
2023-05-17T07:19:20.870Z,42.96
2023-05-17T07:21:51.846Z,43.04
2023-05-17T07:24:19.964Z,43.07
2023-05-17T07:26:48.508Z,42.93
2023-05-17T07:29:18.095Z,42.75
2023-05-17T07:31:47.902Z,42.93
2023-05-17T07:34:18.981Z,42.86
2023-05-17T07:36:50.292Z,42.66
2023-05-17T07:39:18.389Z,42.81
2023-05-17T07:41:46.432Z,42.44
2023-05-17T07:44:14.456Z,42.65
2023-05-17T07:46:42.760Z,42.60
2023-05-17T07:49:12.643Z,42.48
2023-05-17T07:51:43.928Z,42.32
2023-05-17T07:54:14.030Z,42.30
2023-05-17T07:56:42.052Z,42.25
2023-05-17T07:59:18.787Z,42.43
2023-05-17T08:01:47.092Z,42.51
2023-05-17T08:04:16.539Z,42.49
2023-05-17T08:06:45.873Z,42.67
2023-05-17T08:09:13.963Z,42.58
2023-05-17T08:11:47.953Z,42.36
2023-05-17T08:14:16.208Z,42.56
2023-05-17T08:16:44.485Z,42.62
2023-05-17T08:19:13.567Z,42.42
2023-05-17T08:21:43.247Z,42.39
2023-05-17T08:24:11.929Z,42.15
2023-05-17T08:26:40.209Z,42.20
2023-05-17T08:29:08.156Z,42.38
2023-05-17T08:31:36.174Z,42.10
2023-05-17T08:34:06.029Z,42.15
2023-05-17T08:36:34.528Z,42.21
2023-05-17T08:39:04.399Z,42.07
2023-05-17T08:41:32.917Z,42.05
2023-05-17T08:44:01.202Z,42.19
2023-05-17T08:46:29.273Z,42.24
2023-05-17T08:49:57.646Z,42.05
2023-05-17T09:08:31.371Z,41.83
2023-05-17T09:11:05.881Z,42.02
2023-05-17T09:13:33.865Z,41.72
2023-05-17T09:16:02.136Z,41.57
2023-05-17T09:18:33.609Z,41.87
2023-05-17T09:21:05.080Z,41.83
2023-05-17T09:23:34.215Z,41.52
2023-05-17T09:26:05.541Z,41.63
2023-05-17T09:28:38.065Z,41.76
2023-05-17T09:31:07.425Z,41.84
2023-05-17T09:33:35.744Z,41.99
2023-05-17T09:36:05.911Z,41.60
2023-05-17T09:38:34.303Z,41.73
2023-05-17T09:41:04.056Z,41.52
2023-05-17T09:43:50.082Z,41.61
2023-05-17T10:01:34.918Z,41.31
2023-05-17T10:04:03.632Z,41.52
2023-05-17T10:06:45.898Z,41.24
2023-05-17T10:09:16.352Z,41.47
2023-05-17T10:11:45.607Z,41.40
2023-05-17T10:14:14.929Z,41.26
2023-05-17T10:16:45.136Z,41.37
2023-05-17T10:19:14.510Z,40.98
2023-05-17T10:21:46.119Z,41.35
2023-05-17T10:24:18.113Z,41.19
2023-05-17T10:26:48.543Z,41.50
2023-05-17T10:29:26.898Z,41.26
2023-05-17T10:31:59.980Z,41.60
2023-05-17T10:34:32.876Z,41.11
2023-05-17T10:37:01.233Z,41.28
2023-05-17T10:39:34.611Z,41.13
2023-05-17T10:45:00.207Z,41.25
2023-05-17T10:48:01.244Z,41.32
2023-05-17T10:50:34.397Z,41.11
2023-05-17T10:53:08.927Z,41.08
2023-05-17T10:55:53.549Z,41.13
2023-05-17T10:58:32.005Z,40.98
2023-05-17T11:01:07.018Z,40.82
2023-05-17T11:07:16.906Z,40.80
2023-05-17T11:09:56.398Z,40.91
2023-05-17T11:13:19.075Z,40.58
2023-05-17T11:16:27.334Z,40.64
2023-05-17T11:19:08.409Z,40.58
2023-05-17T11:21:46.241Z,40.43
2023-05-17T11:31:50.973Z,40.58
2023-05-17T11:34:28.089Z,40.69
2023-05-17T11:37:02.932Z,40.93
2023-05-17T11:39:33.587Z,40.71
2023-05-17T11:42:07.883Z,40.70
2023-05-17T11:44:41.814Z,40.62
2023-05-17T11:47:18.380Z,40.80
2023-05-17T11:49:58.795Z,40.83
2023-05-17T11:52:30.964Z,40.69
2023-05-17T11:55:05.680Z,40.73
2023-05-17T11:57:41.610Z,40.86
2023-05-17T12:00:10.428Z,40.66
2023-05-17T12:02:41.777Z,40.44
2023-05-17T12:05:15.483Z,40.48
2023-05-17T12:07:49.593Z,40.67
2023-05-17T12:10:22.074Z,40.59
2023-05-17T12:12:57.676Z,40.73
2023-05-17T12:15:25.866Z,40.64
2023-05-17T12:17:54.288Z,40.78
2023-05-17T12:20:26.617Z,40.59
2023-05-17T12:22:56.224Z,40.76
2023-05-17T12:25:30.843Z,40.85
2023-05-17T12:28:20.646Z,40.71
2023-05-17T12:30:49.084Z,40.77
2023-05-17T12:33:18.505Z,40.89
2023-05-17T12:35:51.157Z,40.68
2023-05-17T12:38:19.492Z,40.61
2023-05-17T12:40:47.979Z,40.82
2023-05-17T12:43:16.175Z,40.71
2023-05-17T12:45:44.219Z,40.73
2023-05-17T12:48:12.518Z,40.54
2023-05-17T12:50:40.661Z,40.49
2023-05-17T12:53:15.840Z,40.46
2023-05-17T12:55:44.010Z,40.45
2023-05-17T12:58:12.291Z,40.29
2023-05-17T13:00:40.255Z,40.49
2023-05-17T13:03:10.949Z,40.29
2023-05-17T13:05:41.294Z,40.49
2023-05-17T13:08:25.165Z,40.22
2023-05-17T13:11:42.587Z,40.15
2023-05-17T13:14:12.942Z,39.83
2023-05-17T13:16:44.053Z,40.02
2023-05-17T13:19:13.767Z,39.99
2023-05-17T13:21:42.375Z,40.08
2023-05-17T13:24:14.320Z,40.29
2023-05-17T13:26:58.305Z,40.06
2023-05-17T13:29:43.345Z,40.29
2023-05-17T13:32:24.419Z,40.09
2023-05-17T13:35:07.266Z,39.88
2023-05-17T13:37:38.995Z,39.88
2023-05-17T13:40:18.646Z,39.90
2023-05-17T13:42:54.886Z,39.96
2023-05-17T13:45:47.077Z,39.67
2023-05-17T13:48:24.615Z,39.50
2023-05-17T13:51:01.434Z,39.70
2023-05-17T13:53:39.320Z,39.98
2023-05-17T13:56:17.179Z,39.88
2023-05-17T13:59:00.171Z,39.94
2023-05-17T14:01:34.802Z,39.93
2023-05-17T14:04:23.641Z,39.80
2023-05-17T14:07:16.384Z,39.56
2023-05-17T14:09:50.115Z,39.86
2023-05-17T14:12:24.618Z,39.52
2023-05-17T14:14:55.955Z,39.83
2023-05-17T14:20:39.980Z,39.51
2023-05-17T14:23:15.497Z,39.89
2023-05-17T14:25:59.209Z,39.49
2023-05-17T14:28:29.586Z,39.56
2023-05-17T14:30:57.900Z,39.71
2023-05-17T14:33:28.432Z,39.64
2023-05-17T14:35:57.329Z,39.81
2023-05-17T14:38:28.189Z,39.53
2023-05-17T14:40:56.713Z,39.53
2023-05-17T14:43:25.764Z,39.76
2023-05-17T14:45:55.414Z,39.51
2023-05-17T14:48:24.918Z,39.52
2023-05-17T14:50:53.920Z,39.80
2023-05-17T14:53:27.793Z,39.51
2023-05-17T14:55:56.019Z,39.49
2023-05-17T14:58:30.681Z,39.60
2023-05-17T15:07:24.450Z,39.49
2023-05-17T15:10:05.473Z,39.63
2023-05-17T15:12:35.152Z,39.66
2023-05-17T15:15:03.823Z,39.47
2023-05-17T15:18:10.331Z,39.70
2023-05-17T15:20:58.039Z,39.65
2023-05-17T15:31:29.792Z,39.86
2023-05-17T15:34:02.107Z,39.66
2023-05-17T15:36:30.515Z,39.49
2023-05-17T15:38:58.738Z,39.50
2023-05-17T15:41:29.713Z,39.27
2023-05-17T15:43:58.876Z,39.57
2023-05-17T15:46:27.357Z,39.58
2023-05-17T15:48:56.809Z,39.63
2023-05-17T15:51:26.778Z,39.62
2023-05-17T15:53:55.533Z,39.39
2023-05-17T15:56:27.286Z,39.39
2023-05-17T15:58:55.511Z,39.32
2023-05-17T16:01:23.671Z,39.51
2023-05-17T16:03:52.073Z,39.57
2023-05-17T16:06:22.275Z,39.56
2023-05-17T16:08:55.474Z,39.45
2023-05-17T16:11:24.744Z,39.59
2023-05-17T16:13:52.825Z,39.49
2023-05-17T16:16:21.221Z,39.48
2023-05-17T16:18:49.709Z,39.44
2023-05-17T16:21:18.569Z,39.27
2023-05-17T16:23:46.623Z,39.43
2023-05-17T16:26:23.421Z,38.98
2023-05-17T16:28:56.885Z,39.38
2023-05-17T16:31:28.266Z,39.32
2023-05-17T16:33:58.231Z,39.13
2023-05-17T16:36:29.597Z,39.34
2023-05-17T16:38:58.347Z,39.34
2023-05-17T16:41:33.572Z,39.51
2023-05-17T16:44:01.518Z,39.57
2023-05-17T16:46:31.602Z,39.62
2023-05-17T16:48:59.626Z,39.54
2023-05-17T16:51:28.101Z,39.45
2023-05-17T16:53:57.928Z,39.08
2023-05-17T16:56:26.745Z,40.88
2023-05-17T16:58:56.104Z,38.13
2023-05-17T17:01:24.151Z,39.75
2023-05-17T17:03:52.546Z,39.70
2023-05-17T17:06:38.437Z,38.34
2023-05-17T17:09:12.488Z,37.15
2023-05-17T17:12:02.675Z,38.10
2023-05-17T17:14:37.269Z,38.88
2023-05-17T17:17:05.557Z,39.81
2023-05-17T17:19:33.755Z,40.09
2023-05-17T17:22:06.391Z,36.30
2023-05-17T17:24:39.640Z,38.57
2023-05-17T17:27:14.631Z,37.08
2023-05-17T17:30:13.358Z,36.93
2023-05-17T17:33:06.373Z,35.42
2023-05-17T17:36:13.784Z,35.90
2023-05-17T17:39:10.827Z,34.91
2023-05-17T17:42:03.619Z,35.00
2023-05-17T17:44:37.520Z,37.42
2023-05-17T17:48:09.655Z,35.45
2023-05-17T19:27:06.228Z,36.13
2023-05-17T19:29:48.109Z,35.96
2023-05-17T19:32:24.731Z,36.10
2023-05-17T19:34:59.020Z,36.39
2023-05-17T19:37:28.042Z,36.40
2023-05-17T19:40:00.404Z,36.49
2023-05-17T19:42:40.302Z,36.63
2023-05-17T19:45:28.100Z,36.73
2023-05-17T19:48:10.247Z,36.95
2023-05-17T19:50:41.104Z,37.03
2023-05-17T19:53:10.116Z,37.13
2023-05-17T19:55:43.482Z,37.20
2023-05-17T19:58:13.004Z,37.28
2023-05-17T20:00:41.931Z,37.36
2023-05-17T20:03:10.244Z,37.37
2023-05-17T20:05:38.458Z,37.52
2023-05-17T20:08:08.192Z,37.68
2023-05-17T20:10:36.510Z,37.71
2023-05-17T20:13:04.603Z,37.82
2023-05-17T20:15:33.904Z,37.92
2023-05-17T20:18:02.343Z,38.03
2023-05-17T20:20:33.640Z,38.09
2023-05-17T20:23:02.265Z,38.07
2023-05-17T20:25:33.436Z,38.23
2023-05-17T20:28:03.608Z,38.32
2023-05-17T20:30:31.969Z,38.27
2023-05-17T20:33:10.469Z,38.41
2023-05-17T20:36:01.865Z,38.53
2023-05-17T20:39:06.517Z,38.59
2023-05-17T20:41:37.432Z,38.64
2023-05-17T20:44:10.081Z,38.70
2023-05-17T20:46:38.750Z,38.65
2023-05-17T20:49:10.150Z,38.87
2023-05-17T20:51:38.256Z,38.91
2023-05-17T20:54:09.429Z,39.04
2023-05-17T20:59:34.558Z,39.12
2023-05-17T21:02:07.552Z,39.08
2023-05-17T21:04:43.149Z,39.21
2023-05-17T21:07:17.500Z,39.21
2023-05-17T21:09:46.654Z,39.17
2023-05-17T21:12:18.060Z,39.15
2023-05-17T21:15:03.668Z,39.17
2023-05-17T21:17:51.416Z,39.26
2023-05-17T21:20:23.048Z,39.06
2023-05-17T21:22:58.745Z,39.35
2023-05-17T21:25:27.190Z,39.35
2023-05-17T21:27:55.726Z,39.31
2023-05-17T21:30:26.775Z,39.47
2023-05-17T21:32:57.644Z,39.45
2023-05-17T21:35:27.201Z,39.47
2023-05-17T21:37:56.605Z,39.54
2023-05-17T21:40:24.723Z,39.67
2023-05-17T21:42:54.060Z,39.57
2023-05-17T21:45:24.751Z,39.54
2023-05-17T21:47:52.916Z,39.62
2023-05-17T21:50:21.165Z,39.71
2023-05-17T21:52:50.623Z,39.64
2023-05-17T21:55:18.518Z,39.61
2023-05-17T21:57:46.759Z,39.74
2023-05-17T22:00:16.264Z,39.67
2023-05-17T22:02:47.246Z,39.61
2023-05-17T22:05:15.376Z,39.67
2023-05-17T22:07:45.596Z,39.67
2023-05-17T22:10:15.255Z,39.66
2023-05-17T22:12:43.333Z,39.68
2023-05-17T22:15:13.695Z,39.58
2023-05-17T22:17:51.332Z,39.48
2023-05-17T22:20:27.059Z,39.67
2023-05-17T22:22:57.087Z,39.66
2023-05-17T22:25:26.991Z,39.59
2023-05-17T22:27:55.136Z,39.58
2023-05-17T22:30:23.698Z,39.56
2023-05-17T22:32:54.832Z,39.60
2023-05-17T22:35:26.341Z,39.61
2023-05-17T22:37:54.702Z,39.66
2023-05-17T22:40:22.979Z,39.66
2023-05-17T22:42:52.582Z,39.65
2023-05-17T22:45:20.636Z,39.74
2023-05-17T22:47:48.900Z,39.64
2023-05-17T22:50:18.594Z,39.73
2023-05-17T22:52:47.341Z,39.77
2023-05-17T22:55:15.440Z,39.72
2023-05-17T22:57:43.627Z,39.85
2023-05-17T23:18:14.335Z,39.65
2023-05-17T23:20:46.772Z,39.76
2023-05-17T23:23:16.896Z,39.71
2023-05-17T23:25:48.828Z,39.73
2023-05-17T23:28:18.391Z,39.85
